Winchester, MA (01890)

5:09 AM EST on February 21, 2017 (GMT -0500)
Fells Road | | Change Station

Elev 75 ft 42.46 °N, 71.12 °W | Updated 13 seconds ago

Clear
Clear
25.5 °F
Feels Like 26 °F
N
0.0
Wind Variable Wind from South
Gusts 0.0 mph

Today
High -- | Low -- °F
--% Chance of Precip.
Yesterday
High -- | Low -- °F
Precip. -- in
Pressure 30.42 in
Visibility 10.0 miles
Clouds Clear
Windchill 26 °F
Dew Point 10 °F
Humidity 51%
Rainfall 0.00 in
Snow Depth Not available.
6:32 AM 5:24 PM
Waning Crescent, 26% visible
METAR KBED 210956Z AUTO 20003KT 10SM CLR M07/M11 A3036 RMK AO2 SLP299 T10721106
Pressure 30.42 in
Visibility 10.0 miles
Clouds Clear
Windchill 26 °F
Dew Point 10 °F
Humidity 51%
Rainfall 0.00 in
Snow Depth Not available.
6:32 AM 5:24 PM
Waning Crescent, 26% visible
METAR KBED 210956Z AUTO 20003KT 10SM CLR M07/M11 A3036 RMK AO2 SLP299 T10721106

Get Your Daily Forecast Email!

Thanks for signing up!

Be on the lookout for a verification email in your inbox.

You'll start receiving the daily forecast at 8 AM.

×

10-Day Weather Forecast

Almanac

Astronomy

Feb. 21, 2017 Rise Set
Actual Time
Civil Twilight
Nautical Twilight
Astronomical Twilight
Moon
Length of Visible Light
Length of Day
Tomorrow will be .
, % of the Moon is Illuminated

Today's Extremes

State Highs State Lows

Community

WunderPhotos

Upload Photos

1,962,540 photos uploaded!

WunderBlog® & News

Nearby

Air Quality

  Air Quality AQ Index Pollutant
Not available.

Snow Depth

Station Depth Elevation

Earthquake Activity

City Distance Mag. Time & Date
Minimum magnitude displayed is 2.5.

Coastal Water Temperatures

Place Temperature

Stations

Nearby Weather Stations

Station Location Temp. Windchill Dew Point Humidity Wind Precip. Elev Updated Type
                   

Watches & Warnings

There are currently no watches in effect.